sensor_id;sensor_type;location;lat;lon;timestamp;P1;durP1;ratioP1;P2;durP2;ratioP2
6420;SDS011;3243;50.958;7.012;2023-03-01T00:01:17;10.77;;;6.73;;
6420;SDS011;3243;50.958;7.012;2023-03-01T00:03:46;9.80;;;6.77;;
6420;SDS011;3243;50.958;7.012;2023-03-01T00:06:13;10.13;;;6.93;;
6420;SDS011;3243;50.958;7.012;2023-03-01T00:08:41;10.27;;;6.53;;
6420;SDS011;3243;50.958;7.012;2023-03-01T00:13:44;11.07;;;6.20;;
6420;SDS011;3243;50.958;7.012;2023-03-01T00:16:22;8.60;;;6.63;;
6420;SDS011;3243;50.958;7.012;2023-03-01T00:18:50;8.70;;;6.33;;
6420;SDS011;3243;50.958;7.012;2023-03-01T00:21:17;7.83;;;5.90;;
6420;SDS011;3243;50.958;7.012;2023-03-01T00:23:47;9.30;;;6.17;;
6420;SDS011;3243;50.958;7.012;2023-03-01T00:26:15;8.47;;;6.20;;
6420;SDS011;3243;50.958;7.012;2023-03-01T00:28:43;8.03;;;5.67;;
6420;SDS011;3243;50.958;7.012;2023-03-01T00:31:15;8.63;;;6.50;;
6420;SDS011;3243;50.958;7.012;2023-03-01T00:33:44;9.33;;;6.40;;
6420;SDS011;3243;50.958;7.012;2023-03-01T00:36:12;9.10;;;6.33;;
6420;SDS011;3243;50.958;7.012;2023-03-01T00:38:42;9.53;;;6.00;;
6420;SDS011;3243;50.958;7.012;2023-03-01T00:41:11;10.00;;;6.30;;
6420;SDS011;3243;50.958;7.012;2023-03-01T00:43:40;8.97;;;6.13;;
6420;SDS011;3243;50.958;7.012;2023-03-01T00:46:11;8.17;;;5.70;;
6420;SDS011;3243;50.958;7.012;2023-03-01T00:48:40;10.27;;;6.30;;
6420;SDS011;3243;50.958;7.012;2023-03-01T00:51:12;10.87;;;6.13;;
6420;SDS011;3243;50.958;7.012;2023-03-01T00:53:50;7.73;;;6.20;;
6420;SDS011;3243;50.958;7.012;2023-03-01T00:56:18;11.90;;;6.30;;
6420;SDS011;3243;50.958;7.012;2023-03-01T00:58:45;8.07;;;6.17;;
6420;SDS011;3243;50.958;7.012;2023-03-01T01:01:14;9.90;;;5.93;;
6420;SDS011;3243;50.958;7.012;2023-03-01T01:03:46;7.97;;;5.87;;
6420;SDS011;3243;50.958;7.012;2023-03-01T01:06:21;10.90;;;6.23;;
6420;SDS011;3243;50.958;7.012;2023-03-01T01:08:50;10.30;;;6.53;;
6420;SDS011;3243;50.958;7.012;2023-03-01T01:11:18;11.60;;;6.83;;
6420;SDS011;3243;50.958;7.012;2023-03-01T01:13:46;10.73;;;6.27;;
6420;SDS011;3243;50.958;7.012;2023-03-01T01:16:14;9.30;;;6.00;;
6420;SDS011;3243;50.958;7.012;2023-03-01T01:18:42;8.70;;;6.57;;
6420;SDS011;3243;50.958;7.012;2023-03-01T01:21:10;10.30;;;6.20;;
6420;SDS011;3243;50.958;7.012;2023-03-01T01:23:39;9.37;;;6.40;;
6420;SDS011;3243;50.958;7.012;2023-03-01T01:26:11;9.40;;;6.40;;
6420;SDS011;3243;50.958;7.012;2023-03-01T01:28:47;10.37;;;6.57;;
6420;SDS011;3243;50.958;7.012;2023-03-01T01:31:15;10.43;;;6.60;;
6420;SDS011;3243;50.958;7.012;2023-03-01T01:33:42;9.27;;;6.07;;
6420;SDS011;3243;50.958;7.012;2023-03-01T01:36:10;10.77;;;6.40;;
6420;SDS011;3243;50.958;7.012;2023-03-01T01:38:37;10.10;;;6.33;;
6420;SDS011;3243;50.958;7.012;2023-03-01T01:41:05;8.77;;;6.00;;
6420;SDS011;3243;50.958;7.012;2023-03-01T01:43:33;10.77;;;6.83;;
6420;SDS011;3243;50.958;7.012;2023-03-01T01:46:45;10.13;;;6.40;;
6420;SDS011;3243;50.958;7.012;2023-03-01T01:49:03;8.03;;;6.23;;
6420;SDS011;3243;50.958;7.012;2023-03-01T01:51:39;8.60;;;6.20;;
6420;SDS011;3243;50.958;7.012;2023-03-01T01:54:16;7.70;;;6.30;;
6420;SDS011;3243;50.958;7.012;2023-03-01T01:56:53;7.43;;;5.83;;
6420;SDS011;3243;50.958;7.012;2023-03-01T01:59:24;10.93;;;5.77;;
6420;SDS011;3243;50.958;7.012;2023-03-01T02:01:53;10.30;;;6.37;;
6420;SDS011;3243;50.958;7.012;2023-03-01T02:04:20;10.13;;;6.53;;
6420;SDS011;3243;50.958;7.012;2023-03-01T02:06:57;6.93;;;6.13;;
6420;SDS011;3243;50.958;7.012;2023-03-01T02:09:28;8.27;;;6.10;;
6420;SDS011;3243;50.958;7.012;2023-03-01T02:11:57;12.57;;;6.27;;
6420;SDS011;3243;50.958;7.012;2023-03-01T02:14:25;7.73;;;5.97;;
6420;SDS011;3243;50.958;7.012;2023-03-01T02:16:52;10.70;;;6.13;;
6420;SDS011;3243;50.958;7.012;2023-03-01T02:19:25;8.57;;;5.90;;
6420;SDS011;3243;50.958;7.012;2023-03-01T02:22:03;7.83;;;5.70;;
6420;SDS011;3243;50.958;7.012;2023-03-01T02:27:06;8.70;;;6.27;;
6420;SDS011;3243;50.958;7.012;2023-03-01T02:29:33;9.17;;;6.30;;
6420;SDS011;3243;50.958;7.012;2023-03-01T02:32:00;9.83;;;6.63;;
6420;SDS011;3243;50.958;7.012;2023-03-01T02:34:30;7.83;;;6.03;;
6420;SDS011;3243;50.958;7.012;2023-03-01T02:37:03;8.93;;;6.47;;
6420;SDS011;3243;50.958;7.012;2023-03-01T02:39:42;10.70;;;6.60;;
6420;SDS011;3243;50.958;7.012;2023-03-01T02:42:14;9.83;;;6.27;;
6420;SDS011;3243;50.958;7.012;2023-03-01T02:44:46;9.73;;;6.20;;
6420;SDS011;3243;50.958;7.012;2023-03-01T02:47:13;8.97;;;6.50;;
6420;SDS011;3243;50.958;7.012;2023-03-01T02:49:40;10.83;;;6.87;;
6420;SDS011;3243;50.958;7.012;2023-03-01T02:52:17;10.53;;;6.33;;
6420;SDS011;3243;50.958;7.012;2023-03-01T02:57:39;11.00;;;6.70;;
6420;SDS011;3243;50.958;7.012;2023-03-01T03:00:16;9.03;;;6.63;;
6420;SDS011;3243;50.958;7.012;2023-03-01T03:02:47;11.40;;;6.50;;
6420;SDS011;3243;50.958;7.012;2023-03-01T03:05:18;11.77;;;7.23;;
6420;SDS011;3243;50.958;7.012;2023-03-01T03:07:50;9.13;;;6.90;;
6420;SDS011;3243;50.958;7.012;2023-03-01T03:10:20;11.37;;;7.27;;
6420;SDS011;3243;50.958;7.012;2023-03-01T03:12:49;9.57;;;6.27;;
6420;SDS011;3243;50.958;7.012;2023-03-01T03:15:17;10.17;;;7.57;;
6420;SDS011;3243;50.958;7.012;2023-03-01T03:17:46;9.30;;;6.97;;
6420;SDS011;3243;50.958;7.012;2023-03-01T03:20:14;9.80;;;7.40;;
6420;SDS011;3243;50.958;7.012;2023-03-01T03:22:46;10.00;;;7.20;;
6420;SDS011;3243;50.958;7.012;2023-03-01T03:25:19;9.60;;;7.03;;
6420;SDS011;3243;50.958;7.012;2023-03-01T03:27:47;9.87;;;7.00;;
6420;SDS011;3243;50.958;7.012;2023-03-01T03:30:17;11.70;;;7.10;;
6420;SDS011;3243;50.958;7.012;2023-03-01T03:32:45;9.23;;;7.47;;
6420;SDS011;3243;50.958;7.012;2023-03-01T03:37:46;11.13;;;6.80;;
6420;SDS011;3243;50.958;7.012;2023-03-01T03:40:28;10.40;;;6.77;;
6420;SDS011;3243;50.958;7.012;2023-03-01T03:42:57;10.40;;;7.10;;
6420;SDS011;3243;50.958;7.012;2023-03-01T03:45:24;10.57;;;7.10;;
6420;SDS011;3243;50.958;7.012;2023-03-01T03:47:51;9.73;;;6.90;;
6420;SDS011;3243;50.958;7.012;2023-03-01T03:50:18;9.43;;;7.57;;
6420;SDS011;3243;50.958;7.012;2023-03-01T03:52:45;9.40;;;7.23;;
6420;SDS011;3243;50.958;7.012;2023-03-01T03:55:13;9.33;;;6.77;;
6420;SDS011;3243;50.958;7.012;2023-03-01T03:57:45;9.20;;;6.80;;
6420;SDS011;3243;50.958;7.012;2023-03-01T04:00:18;11.10;;;7.37;;
6420;SDS011;3243;50.958;7.012;2023-03-01T04:02:47;8.93;;;6.70;;
6420;SDS011;3243;50.958;7.012;2023-03-01T04:05:15;12.83;;;7.20;;
6420;SDS011;3243;50.958;7.012;2023-03-01T04:07:43;8.87;;;7.07;;
6420;SDS011;3243;50.958;7.012;2023-03-01T04:10:13;11.03;;;7.07;;
6420;SDS011;3243;50.958;7.012;2023-03-01T04:12:41;11.27;;;6.83;;
6420;SDS011;3243;50.958;7.012;2023-03-01T04:15:09;12.13;;;7.50;;
6420;SDS011;3243;50.958;7.012;2023-03-01T04:17:40;10.47;;;6.93;;
6420;SDS011;3243;50.958;7.012;2023-03-01T04:20:27;9.50;;;7.37;;
6420;SDS011;3243;50.958;7.012;2023-03-01T04:25:37;9.23;;;7.03;;
6420;SDS011;3243;50.958;7.012;2023-03-01T04:28:05;9.53;;;7.43;;
6420;SDS011;3243;50.958;7.012;2023-03-01T04:30:31;10.60;;;7.67;;
6420;SDS011;3243;50.958;7.012;2023-03-01T04:33:05;9.57;;;7.17;;
6420;SDS011;3243;50.958;7.012;2023-03-01T04:35:33;12.83;;;7.87;;
6420;SDS011;3243;50.958;7.012;2023-03-01T04:38:01;12.47;;;8.17;;
6420;SDS011;3243;50.958;7.012;2023-03-01T04:40:28;12.50;;;7.23;;
6420;SDS011;3243;50.958;7.012;2023-03-01T04:42:55;11.97;;;7.90;;
6420;SDS011;3243;50.958;7.012;2023-03-01T04:45:22;12.40;;;7.93;;
6420;SDS011;3243;50.958;7.012;2023-03-01T04:47:48;10.37;;;7.97;;
6420;SDS011;3243;50.958;7.012;2023-03-01T04:50:18;11.80;;;8.50;;
6420;SDS011;3243;50.958;7.012;2023-03-01T04:52:50;11.53;;;8.23;;
6420;SDS011;3243;50.958;7.012;2023-03-01T04:55:18;12.20;;;8.53;;
6420;SDS011;3243;50.958;7.012;2023-03-01T04:57:45;14.77;;;7.73;;
6420;SDS011;3243;50.958;7.012;2023-03-01T05:00:13;12.13;;;8.00;;
6420;SDS011;3243;50.958;7.012;2023-03-01T05:05:20;13.23;;;8.40;;
6420;SDS011;3243;50.958;7.012;2023-03-01T05:07:55;12.70;;;8.37;;
6420;SDS011;3243;50.958;7.012;2023-03-01T05:10:24;16.10;;;9.73;;
6420;SDS011;3243;50.958;7.012;2023-03-01T05:12:52;11.83;;;8.60;;
6420;SDS011;3243;50.958;7.012;2023-03-01T05:15:19;13.83;;;9.20;;
6420;SDS011;3243;50.958;7.012;2023-03-01T05:17:48;13.33;;;8.27;;
6420;SDS011;3243;50.958;7.012;2023-03-01T05:20:15;11.67;;;7.47;;
6420;SDS011;3243;50.958;7.012;2023-03-01T05:22:42;12.10;;;8.77;;
6420;SDS011;3243;50.958;7.012;2023-03-01T05:25:09;14.77;;;8.80;;
6420;SDS011;3243;50.958;7.012;2023-03-01T05:27:36;11.77;;;8.93;;
6420;SDS011;3243;50.958;7.012;2023-03-01T05:30:03;13.37;;;9.07;;
6420;SDS011;3243;50.958;7.012;2023-03-01T05:32:40;12.47;;;8.53;;
6420;SDS011;3243;50.958;7.012;2023-03-01T05:35:09;11.40;;;8.60;;
6420;SDS011;3243;50.958;7.012;2023-03-01T05:37:44;12.40;;;8.97;;
6420;SDS011;3243;50.958;7.012;2023-03-01T05:40:15;15.80;;;8.90;;
6420;SDS011;3243;50.958;7.012;2023-03-01T05:42:47;14.70;;;8.93;;
6420;SDS011;3243;50.958;7.012;2023-03-01T05:45:16;14.20;;;9.67;;
6420;SDS011;3243;50.958;7.012;2023-03-01T05:47:44;11.00;;;8.10;;
6420;SDS011;3243;50.958;7.012;2023-03-01T05:50:22;12.63;;;8.90;;
6420;SDS011;3243;50.958;7.012;2023-03-01T05:52:53;12.63;;;9.10;;
6420;SDS011;3243;50.958;7.012;2023-03-01T05:55:24;14.50;;;9.87;;
6420;SDS011;3243;50.958;7.012;2023-03-01T05:57:54;14.40;;;8.70;;
6420;SDS011;3243;50.958;7.012;2023-03-01T06:00:21;14.37;;;9.77;;
6420;SDS011;3243;50.958;7.012;2023-03-01T06:02:48;14.67;;;9.33;;
6420;SDS011;3243;50.958;7.012;2023-03-01T06:05:16;14.67;;;9.67;;
6420;SDS011;3243;50.958;7.012;2023-03-01T06:07:43;14.23;;;8.90;;
6420;SDS011;3243;50.958;7.012;2023-03-01T06:10:11;12.70;;;8.97;;
6420;SDS011;3243;50.958;7.012;2023-03-01T06:12:39;13.63;;;8.83;;
6420;SDS011;3243;50.958;7.012;2023-03-01T06:15:07;13.57;;;9.10;;
6420;SDS011;3243;50.958;7.012;2023-03-01T06:17:36;14.83;;;9.93;;
6420;SDS011;3243;50.958;7.012;2023-03-01T06:20:05;15.50;;;10.13;;
6420;SDS011;3243;50.958;7.012;2023-03-01T06:22:37;13.43;;;9.37;;
6420;SDS011;3243;50.958;7.012;2023-03-01T06:25:04;13.97;;;9.73;;
6420;SDS011;3243;50.958;7.012;2023-03-01T06:27:32;16.20;;;9.90;;
6420;SDS011;3243;50.958;7.012;2023-03-01T06:29:58;13.83;;;9.70;;
6420;SDS011;3243;50.958;7.012;2023-03-01T06:32:25;14.87;;;10.30;;
6420;SDS011;3243;50.958;7.012;2023-03-01T06:34:52;12.77;;;9.17;;
6420;SDS011;3243;50.958;7.012;2023-03-01T06:37:19;14.90;;;10.47;;
6420;SDS011;3243;50.958;7.012;2023-03-01T06:39:45;15.73;;;9.33;;
6420;SDS011;3243;50.958;7.012;2023-03-01T06:42:12;14.27;;;10.07;;
6420;SDS011;3243;50.958;7.012;2023-03-01T06:44:39;14.87;;;10.17;;
6420;SDS011;3243;50.958;7.012;2023-03-01T06:47:05;13.20;;;8.83;;
6420;SDS011;3243;50.958;7.012;2023-03-01T06:49:32;13.30;;;10.27;;
6420;SDS011;3243;50.958;7.012;2023-03-01T06:51:59;12.43;;;9.33;;
6420;SDS011;3243;50.958;7.012;2023-03-01T06:54:25;14.70;;;9.90;;
6420;SDS011;3243;50.958;7.012;2023-03-01T06:56:52;19.20;;;11.20;;
6420;SDS011;3243;50.958;7.012;2023-03-01T06:59:19;15.00;;;10.37;;
6420;SDS011;3243;50.958;7.012;2023-03-01T07:01:46;16.13;;;10.27;;
6420;SDS011;3243;50.958;7.012;2023-03-01T07:04:12;14.43;;;9.90;;
6420;SDS011;3243;50.958;7.012;2023-03-01T07:06:39;15.27;;;9.90;;
6420;SDS011;3243;50.958;7.012;2023-03-01T07:09:06;20.37;;;10.50;;
6420;SDS011;3243;50.958;7.012;2023-03-01T07:11:33;14.40;;;9.70;;
6420;SDS011;3243;50.958;7.012;2023-03-01T07:14:00;19.87;;;10.93;;
6420;SDS011;3243;50.958;7.012;2023-03-01T07:16:27;16.93;;;10.90;;
6420;SDS011;3243;50.958;7.012;2023-03-01T07:18:54;15.23;;;10.60;;
6420;SDS011;3243;50.958;7.012;2023-03-01T07:21:21;15.03;;;9.93;;
6420;SDS011;3243;50.958;7.012;2023-03-01T07:23:48;16.53;;;11.03;;
6420;SDS011;3243;50.958;7.012;2023-03-01T07:26:15;15.47;;;10.63;;
6420;SDS011;3243;50.958;7.012;2023-03-01T07:28:42;13.90;;;9.70;;
6420;SDS011;3243;50.958;7.012;2023-03-01T07:31:08;14.87;;;10.67;;
6420;SDS011;3243;50.958;7.012;2023-03-01T07:33:35;15.97;;;10.40;;
6420;SDS011;3243;50.958;7.012;2023-03-01T07:36:02;15.73;;;10.63;;
6420;SDS011;3243;50.958;7.012;2023-03-01T07:38:30;16.50;;;10.27;;
6420;SDS011;3243;50.958;7.012;2023-03-01T07:40:58;15.90;;;10.37;;
6420;SDS011;3243;50.958;7.012;2023-03-01T07:43:29;12.97;;;10.27;;
6420;SDS011;3243;50.958;7.012;2023-03-01T07:46:00;14.83;;;10.57;;
6420;SDS011;3243;50.958;7.012;2023-03-01T07:48:28;13.93;;;10.07;;
6420;SDS011;3243;50.958;7.012;2023-03-01T07:51:02;15.20;;;10.50;;
6420;SDS011;3243;50.958;7.012;2023-03-01T07:53:31;17.00;;;10.73;;
6420;SDS011;3243;50.958;7.012;2023-03-01T07:56:10;14.77;;;10.47;;
6420;SDS011;3243;50.958;7.012;2023-03-01T07:58:39;13.47;;;10.20;;
6420;SDS011;3243;50.958;7.012;2023-03-01T08:01:09;16.60;;;11.03;;
6420;SDS011;3243;50.958;7.012;2023-03-01T08:03:42;18.50;;;11.60;;
6420;SDS011;3243;50.958;7.012;2023-03-01T08:06:10;16.33;;;10.70;;
6420;SDS011;3243;50.958;7.012;2023-03-01T08:08:37;14.80;;;10.53;;
6420;SDS011;3243;50.958;7.012;2023-03-01T08:11:05;14.70;;;10.03;;
6420;SDS011;3243;50.958;7.012;2023-03-01T08:13:33;14.20;;;10.10;;
6420;SDS011;3243;50.958;7.012;2023-03-01T08:16:01;13.93;;;10.10;;
6420;SDS011;3243;50.958;7.012;2023-03-01T08:18:29;17.33;;;10.90;;
6420;SDS011;3243;50.958;7.012;2023-03-01T08:20:56;14.83;;;10.53;;
6420;SDS011;3243;50.958;7.012;2023-03-01T08:23:31;15.27;;;10.37;;
6420;SDS011;3243;50.958;7.012;2023-03-01T08:28:35;16.23;;;10.63;;
6420;SDS011;3243;50.958;7.012;2023-03-01T08:31:02;15.30;;;10.30;;
6420;SDS011;3243;50.958;7.012;2023-03-01T08:33:39;16.27;;;10.70;;
6420;SDS011;3243;50.958;7.012;2023-03-01T08:36:06;15.53;;;9.97;;
6420;SDS011;3243;50.958;7.012;2023-03-01T08:38:33;15.03;;;10.10;;
6420;SDS011;3243;50.958;7.012;2023-03-01T08:41:02;13.53;;;9.37;;
6420;SDS011;3243;50.958;7.012;2023-03-01T08:43:29;13.10;;;8.93;;
6420;SDS011;3243;50.958;7.012;2023-03-01T08:45:56;12.07;;;9.07;;
6420;SDS011;3243;50.958;7.012;2023-03-01T08:48:24;15.60;;;9.10;;
6420;SDS011;3243;50.958;7.012;2023-03-01T08:50:51;13.47;;;9.13;;
6420;SDS011;3243;50.958;7.012;2023-03-01T08:53:18;13.60;;;9.20;;
6420;SDS011;3243;50.958;7.012;2023-03-01T08:55:44;14.73;;;9.37;;
6420;SDS011;3243;50.958;7.012;2023-03-01T08:58:11;11.70;;;9.00;;
6420;SDS011;3243;50.958;7.012;2023-03-01T09:00:38;14.87;;;9.43;;
6420;SDS011;3243;50.958;7.012;2023-03-01T09:03:06;14.37;;;9.20;;
6420;SDS011;3243;50.958;7.012;2023-03-01T09:05:33;14.00;;;8.83;;
6420;SDS011;3243;50.958;7.012;2023-03-01T09:08:00;12.57;;;8.73;;
6420;SDS011;3243;50.958;7.012;2023-03-01T09:10:27;12.17;;;8.23;;
6420;SDS011;3243;50.958;7.012;2023-03-01T09:12:54;14.67;;;8.17;;
6420;SDS011;3243;50.958;7.012;2023-03-01T09:15:20;12.30;;;8.57;;
6420;SDS011;3243;50.958;7.012;2023-03-01T09:17:47;15.47;;;8.57;;
6420;SDS011;3243;50.958;7.012;2023-03-01T09:20:14;11.53;;;8.30;;
6420;SDS011;3243;50.958;7.012;2023-03-01T09:22:41;11.57;;;7.87;;
6420;SDS011;3243;50.958;7.012;2023-03-01T09:25:08;12.20;;;8.40;;
6420;SDS011;3243;50.958;7.012;2023-03-01T09:27:35;11.20;;;7.87;;
6420;SDS011;3243;50.958;7.012;2023-03-01T09:30:02;14.53;;;8.33;;
6420;SDS011;3243;50.958;7.012;2023-03-01T09:32:31;12.37;;;8.53;;
6420;SDS011;3243;50.958;7.012;2023-03-01T09:34:58;11.40;;;7.67;;
6420;SDS011;3243;50.958;7.012;2023-03-01T09:37:30;12.37;;;8.00;;
6420;SDS011;3243;50.958;7.012;2023-03-01T09:39:58;11.07;;;8.17;;
6420;SDS011;3243;50.958;7.012;2023-03-01T09:42:25;10.00;;;8.17;;
6420;SDS011;3243;50.958;7.012;2023-03-01T09:44:58;12.27;;;7.93;;
6420;SDS011;3243;50.958;7.012;2023-03-01T09:47:30;12.60;;;9.13;;
6420;SDS011;3243;50.958;7.012;2023-03-01T09:50:10;11.17;;;8.17;;
6420;SDS011;3243;50.958;7.012;2023-03-01T09:52:43;13.27;;;8.67;;
6420;SDS011;3243;50.958;7.012;2023-03-01T09:55:15;10.90;;;7.93;;
6420;SDS011;3243;50.958;7.012;2023-03-01T10:01:15;12.77;;;8.47;;
6420;SDS011;3243;50.958;7.012;2023-03-01T10:03:58;11.57;;;7.93;;
6420;SDS011;3243;50.958;7.012;2023-03-01T10:09:38;12.00;;;8.30;;
6420;SDS011;3243;50.958;7.012;2023-03-01T10:12:14;12.00;;;8.40;;
6420;SDS011;3243;50.958;7.012;2023-03-01T10:17:39;12.23;;;8.80;;
6420;SDS011;3243;50.958;7.012;2023-03-01T10:23:24;12.67;;;8.27;;
6420;SDS011;3243;50.958;7.012;2023-03-01T10:31:48;12.33;;;8.37;;
6420;SDS011;3243;50.958;7.012;2023-03-01T10:34:35;12.13;;;8.50;;
6420;SDS011;3243;50.958;7.012;2023-03-01T10:37:10;13.30;;;8.63;;
6420;SDS011;3243;50.958;7.012;2023-03-01T10:42:31;12.33;;;8.67;;
6420;SDS011;3243;50.958;7.012;2023-03-01T10:47:45;13.63;;;8.83;;
6420;SDS011;3243;50.958;7.012;2023-03-01T10:50:19;14.47;;;8.50;;
6420;SDS011;3243;50.958;7.012;2023-03-01T10:53:01;11.90;;;7.57;;
6420;SDS011;3243;50.958;7.012;2023-03-01T10:55:39;13.70;;;8.43;;
6420;SDS011;3243;50.958;7.012;2023-03-01T10:58:07;11.83;;;8.20;;
6420;SDS011;3243;50.958;7.012;2023-03-01T11:00:52;13.00;;;7.70;;
6420;SDS011;3243;50.958;7.012;2023-03-01T11:03:27;10.20;;;8.10;;
6420;SDS011;3243;50.958;7.012;2023-03-01T11:14:03;12.80;;;8.40;;
6420;SDS011;3243;50.958;7.012;2023-03-01T11:16:59;10.63;;;8.27;;
6420;SDS011;3243;50.958;7.012;2023-03-01T11:19:29;11.30;;;7.83;;
6420;SDS011;3243;50.958;7.012;2023-03-01T11:22:04;12.37;;;7.97;;
6420;SDS011;3243;50.958;7.012;2023-03-01T11:27:15;12.77;;;8.63;;
6420;SDS011;3243;50.958;7.012;2023-03-01T11:30:07;10.17;;;8.07;;
6420;SDS011;3243;50.958;7.012;2023-03-01T11:33:02;14.73;;;8.60;;
6420;SDS011;3243;50.958;7.012;2023-03-01T11:35:42;11.20;;;7.57;;
6420;SDS011;3243;50.958;7.012;2023-03-01T11:38:34;12.10;;;7.43;;
6420;SDS011;3243;50.958;7.012;2023-03-01T11:41:18;10.43;;;7.60;;
6420;SDS011;3243;50.958;7.012;2023-03-01T11:51:55;12.63;;;8.33;;
6420;SDS011;3243;50.958;7.012;2023-03-01T12:00:33;11.40;;;8.40;;
6420;SDS011;3243;50.958;7.012;2023-03-01T12:27:55;12.50;;;8.23;;
6420;SDS011;3243;50.958;7.012;2023-03-01T12:49:08;10.77;;;6.97;;
6420;SDS011;3243;50.958;7.012;2023-03-01T12:51:37;13.97;;;7.17;;
6420;SDS011;3243;50.958;7.012;2023-03-01T12:54:15;10.03;;;7.63;;
6420;SDS011;3243;50.958;7.012;2023-03-01T12:56:47;9.13;;;7.00;;
6420;SDS011;3243;50.958;7.012;2023-03-01T12:59:24;9.43;;;6.93;;
6420;SDS011;3243;50.958;7.012;2023-03-01T13:02:25;10.07;;;6.77;;
6420;SDS011;3243;50.958;7.012;2023-03-01T13:10:33;9.37;;;6.07;;
6420;SDS011;3243;50.958;7.012;2023-03-01T13:13:24;7.73;;;6.20;;
6420;SDS011;3243;50.958;7.012;2023-03-01T13:15:53;9.27;;;6.43;;
6420;SDS011;3243;50.958;7.012;2023-03-01T13:21:01;8.47;;;6.50;;
6420;SDS011;3243;50.958;7.012;2023-03-01T13:23:33;9.03;;;6.97;;
6420;SDS011;3243;50.958;7.012;2023-03-01T13:31:02;12.37;;;7.40;;
6420;SDS011;3243;50.958;7.012;2023-03-01T13:35:58;9.83;;;7.13;;
6420;SDS011;3243;50.958;7.012;2023-03-01T13:41:16;8.73;;;6.40;;
6420;SDS011;3243;50.958;7.012;2023-03-01T13:49:26;9.50;;;6.90;;
6420;SDS011;3243;50.958;7.012;2023-03-01T13:52:22;8.77;;;6.60;;
6420;SDS011;3243;50.958;7.012;2023-03-01T13:57:41;8.33;;;6.80;;
6420;SDS011;3243;50.958;7.012;2023-03-01T14:05:40;10.10;;;6.53;;
6420;SDS011;3243;50.958;7.012;2023-03-01T14:08:19;9.00;;;6.17;;
6420;SDS011;3243;50.958;7.012;2023-03-01T14:11:13;7.80;;;6.03;;
6420;SDS011;3243;50.958;7.012;2023-03-01T14:19:14;7.47;;;5.80;;
6420;SDS011;3243;50.958;7.012;2023-03-01T14:24:50;7.00;;;5.43;;
6420;SDS011;3243;50.958;7.012;2023-03-01T14:27:20;8.60;;;6.23;;
6420;SDS011;3243;50.958;7.012;2023-03-01T14:29:54;9.83;;;6.23;;
6420;SDS011;3243;50.958;7.012;2023-03-01T14:32:38;9.17;;;6.30;;
6420;SDS011;3243;50.958;7.012;2023-03-01T14:35:25;8.23;;;5.97;;
6420;SDS011;3243;50.958;7.012;2023-03-01T14:37:56;9.87;;;6.33;;
6420;SDS011;3243;50.958;7.012;2023-03-01T14:40:34;9.63;;;6.73;;
6420;SDS011;3243;50.958;7.012;2023-03-01T14:43:08;12.83;;;6.60;;
6420;SDS011;3243;50.958;7.012;2023-03-01T14:45:37;9.43;;;6.47;;
6420;SDS011;3243;50.958;7.012;2023-03-01T14:48:04;13.07;;;6.63;;
6420;SDS011;3243;50.958;7.012;2023-03-01T14:50:40;11.93;;;7.73;;
6420;SDS011;3243;50.958;7.012;2023-03-01T14:53:18;18.40;;;8.03;;
6420;SDS011;3243;50.958;7.012;2023-03-01T14:55:47;11.23;;;7.20;;
6420;SDS011;3243;50.958;7.012;2023-03-01T14:58:22;10.90;;;6.67;;
6420;SDS011;3243;50.958;7.012;2023-03-01T15:00:54;10.87;;;6.80;;
6420;SDS011;3243;50.958;7.012;2023-03-01T15:06:03;9.37;;;6.60;;
6420;SDS011;3243;50.958;7.012;2023-03-01T15:08:32;9.47;;;7.20;;
6420;SDS011;3243;50.958;7.012;2023-03-01T15:11:03;10.20;;;6.53;;
6420;SDS011;3243;50.958;7.012;2023-03-01T15:13:42;12.23;;;6.90;;
6420;SDS011;3243;50.958;7.012;2023-03-01T15:16:13;8.13;;;6.13;;
6420;SDS011;3243;50.958;7.012;2023-03-01T15:19:02;10.50;;;7.30;;
6420;SDS011;3243;50.958;7.012;2023-03-01T15:21:33;11.10;;;7.10;;
6420;SDS011;3243;50.958;7.012;2023-03-01T15:24:05;9.77;;;6.47;;
6420;SDS011;3243;50.958;7.012;2023-03-01T15:29:24;10.93;;;6.73;;
6420;SDS011;3243;50.958;7.012;2023-03-01T15:32:03;9.87;;;6.90;;
6420;SDS011;3243;50.958;7.012;2023-03-01T15:34:33;9.33;;;6.50;;
6420;SDS011;3243;50.958;7.012;2023-03-01T15:37:04;11.30;;;6.60;;
6420;SDS011;3243;50.958;7.012;2023-03-01T15:42:13;10.80;;;6.80;;
6420;SDS011;3243;50.958;7.012;2023-03-01T15:47:58;9.17;;;6.73;;
6420;SDS011;3243;50.958;7.012;2023-03-01T15:50:32;12.13;;;6.53;;
6420;SDS011;3243;50.958;7.012;2023-03-01T15:53:01;10.87;;;7.17;;
6420;SDS011;3243;50.958;7.012;2023-03-01T15:55:32;11.53;;;6.47;;
6420;SDS011;3243;50.958;7.012;2023-03-01T15:58:09;10.47;;;5.80;;
6420;SDS011;3243;50.958;7.012;2023-03-01T16:00:39;8.53;;;6.13;;
6420;SDS011;3243;50.958;7.012;2023-03-01T16:03:23;9.53;;;5.63;;
6420;SDS011;3243;50.958;7.012;2023-03-01T16:05:50;8.67;;;6.13;;
6420;SDS011;3243;50.958;7.012;2023-03-01T16:08:17;9.73;;;6.47;;
6420;SDS011;3243;50.958;7.012;2023-03-01T16:10:45;13.30;;;7.13;;
6420;SDS011;3243;50.958;7.012;2023-03-01T16:13:14;10.07;;;6.50;;
6420;SDS011;3243;50.958;7.012;2023-03-01T16:15:41;9.53;;;5.90;;
6420;SDS011;3243;50.958;7.012;2023-03-01T16:18:09;12.13;;;6.33;;
6420;SDS011;3243;50.958;7.012;2023-03-01T16:20:38;9.90;;;6.33;;
6420;SDS011;3243;50.958;7.012;2023-03-01T16:23:06;10.63;;;6.40;;
6420;SDS011;3243;50.958;7.012;2023-03-01T16:25:34;9.30;;;6.20;;
6420;SDS011;3243;50.958;7.012;2023-03-01T16:28:02;8.80;;;6.03;;
6420;SDS011;3243;50.958;7.012;2023-03-01T16:30:34;10.37;;;6.63;;
6420;SDS011;3243;50.958;7.012;2023-03-01T16:33:02;8.60;;;5.73;;
6420;SDS011;3243;50.958;7.012;2023-03-01T16:35:50;9.63;;;5.73;;
6420;SDS011;3243;50.958;7.012;2023-03-01T16:38:17;10.00;;;6.03;;
6420;SDS011;3243;50.958;7.012;2023-03-01T16:40:48;10.03;;;6.00;;
6420;SDS011;3243;50.958;7.012;2023-03-01T16:43:16;9.37;;;6.73;;
6420;SDS011;3243;50.958;7.012;2023-03-01T16:45:42;12.57;;;6.17;;
6420;SDS011;3243;50.958;7.012;2023-03-01T16:48:11;8.53;;;5.77;;
6420;SDS011;3243;50.958;7.012;2023-03-01T16:50:38;9.23;;;5.77;;
6420;SDS011;3243;50.958;7.012;2023-03-01T16:53:06;8.87;;;5.80;;
6420;SDS011;3243;50.958;7.012;2023-03-01T16:55:33;8.97;;;5.93;;
6420;SDS011;3243;50.958;7.012;2023-03-01T16:58:00;10.97;;;5.50;;
6420;SDS011;3243;50.958;7.012;2023-03-01T17:00:27;10.83;;;6.47;;
6420;SDS011;3243;50.958;7.012;2023-03-01T17:02:54;10.27;;;6.23;;
6420;SDS011;3243;50.958;7.012;2023-03-01T17:05:21;9.17;;;6.27;;
6420;SDS011;3243;50.958;7.012;2023-03-01T17:07:50;10.80;;;5.87;;
6420;SDS011;3243;50.958;7.012;2023-03-01T17:10:17;9.17;;;5.93;;
6420;SDS011;3243;50.958;7.012;2023-03-01T17:12:45;9.43;;;5.70;;
6420;SDS011;3243;50.958;7.012;2023-03-01T17:15:15;10.20;;;6.43;;
6420;SDS011;3243;50.958;7.012;2023-03-01T17:17:42;8.93;;;6.07;;
6420;SDS011;3243;50.958;7.012;2023-03-01T17:20:09;8.40;;;6.10;;
6420;SDS011;3243;50.958;7.012;2023-03-01T17:22:36;8.40;;;5.97;;
6420;SDS011;3243;50.958;7.012;2023-03-01T17:25:03;8.70;;;6.10;;
6420;SDS011;3243;50.958;7.012;2023-03-01T17:27:30;11.00;;;6.77;;
6420;SDS011;3243;50.958;7.012;2023-03-01T17:30:00;10.53;;;6.37;;
6420;SDS011;3243;50.958;7.012;2023-03-01T17:32:30;9.80;;;6.13;;
6420;SDS011;3243;50.958;7.012;2023-03-01T17:34:57;9.40;;;6.33;;
6420;SDS011;3243;50.958;7.012;2023-03-01T17:37:24;9.50;;;6.30;;
6420;SDS011;3243;50.958;7.012;2023-03-01T17:39:51;7.83;;;5.93;;
6420;SDS011;3243;50.958;7.012;2023-03-01T17:42:17;10.40;;;6.10;;
6420;SDS011;3243;50.958;7.012;2023-03-01T17:44:44;11.10;;;6.50;;
6420;SDS011;3243;50.958;7.012;2023-03-01T17:47:12;9.27;;;5.87;;
6420;SDS011;3243;50.958;7.012;2023-03-01T17:49:39;8.37;;;6.13;;
6420;SDS011;3243;50.958;7.012;2023-03-01T17:52:06;10.83;;;7.03;;
6420;SDS011;3243;50.958;7.012;2023-03-01T17:54:33;9.50;;;6.40;;
6420;SDS011;3243;50.958;7.012;2023-03-01T17:57:00;10.97;;;6.33;;
6420;SDS011;3243;50.958;7.012;2023-03-01T17:59:27;9.03;;;6.30;;
6420;SDS011;3243;50.958;7.012;2023-03-01T18:01:56;11.17;;;6.47;;
6420;SDS011;3243;50.958;7.012;2023-03-01T18:04:24;9.87;;;6.63;;
6420;SDS011;3243;50.958;7.012;2023-03-01T18:06:50;11.90;;;6.33;;
6420;SDS011;3243;50.958;7.012;2023-03-01T18:09:18;9.37;;;6.60;;